createdAt,value
2022-10-14T00:00:38.400Z,13.70
2022-10-14T00:03:06.232Z,13.70
2022-10-14T00:05:34.162Z,13.70
2022-10-14T00:08:02.069Z,13.70
2022-10-14T00:10:29.930Z,13.70
2022-10-14T00:12:57.796Z,13.70
2022-10-14T00:15:25.678Z,13.80
2022-10-14T00:17:54.946Z,13.70
2022-10-14T00:20:22.872Z,13.80
2022-10-14T00:22:50.701Z,13.70
2022-10-14T00:25:18.946Z,13.70
2022-10-14T00:27:46.803Z,13.70
2022-10-14T00:30:14.928Z,13.80
2022-10-14T00:32:42.733Z,13.70
2022-10-14T00:35:12.033Z,13.70
2022-10-14T00:37:39.925Z,13.70
2022-10-14T00:40:08.532Z,13.70
2022-10-14T00:42:36.800Z,13.70
2022-10-14T00:45:12.554Z,13.70
2022-10-14T00:47:40.801Z,13.70
2022-10-14T00:50:09.502Z,13.70
2022-10-14T00:52:38.993Z,13.60
2022-10-14T00:55:11.212Z,13.60
2022-10-14T00:57:39.549Z,13.60
2022-10-14T01:00:10.482Z,13.60
2022-10-14T01:02:38.409Z,13.60
2022-10-14T01:05:09.369Z,13.60
2022-10-14T01:07:51.189Z,13.60
2022-10-14T01:10:30.982Z,13.60
2022-10-14T01:13:11.269Z,13.50
2022-10-14T01:15:46.632Z,13.60
2022-10-14T01:18:30.580Z,13.60
2022-10-14T01:21:19.558Z,13.60
2022-10-14T01:24:32.394Z,13.60
2022-10-14T01:27:26.253Z,13.60
2022-10-14T01:30:12.522Z,13.60
2022-10-14T01:33:01.269Z,13.60
2022-10-14T01:35:42.840Z,13.60
2022-10-14T01:38:15.926Z,13.60
2022-10-14T01:40:49.484Z,13.60
2022-10-14T01:43:19.111Z,13.50
2022-10-14T01:45:51.253Z,13.50
2022-10-14T01:48:23.777Z,13.50
2022-10-14T01:50:53.424Z,13.50
2022-10-14T01:53:25.706Z,13.50
2022-10-14T01:55:56.194Z,13.60
2022-10-14T01:58:28.269Z,13.60
2022-10-14T02:00:57.581Z,13.60
2022-10-14T02:03:25.463Z,13.50
2022-10-14T02:05:59.385Z,13.50
2022-10-14T02:08:37.208Z,13.50
2022-10-14T02:11:09.954Z,13.40
2022-10-14T02:13:52.713Z,13.50
2022-10-14T02:16:29.771Z,13.50
2022-10-14T02:19:03.151Z,13.50
2022-10-14T02:21:37.268Z,13.40
2022-10-14T02:24:09.889Z,13.40
2022-10-14T02:26:38.796Z,13.40
2022-10-14T02:29:07.209Z,13.40
2022-10-14T02:31:38.740Z,13.40
2022-10-14T02:34:10.857Z,13.50
2022-10-14T02:36:39.617Z,13.50
2022-10-14T02:39:10.824Z,13.50
2022-10-14T02:41:39.795Z,13.50
2022-10-14T02:44:08.052Z,13.50
2022-10-14T02:46:39.835Z,13.50
2022-10-14T02:49:07.720Z,13.50
2022-10-14T02:51:35.718Z,13.50
2022-10-14T02:54:03.748Z,13.40
2022-10-14T02:56:31.621Z,13.50
2022-10-14T02:58:59.470Z,13.50
2022-10-14T03:01:27.458Z,13.50
2022-10-14T03:03:56.738Z,13.50
2022-10-14T03:06:24.690Z,13.50
2022-10-14T03:08:52.508Z,13.50
2022-10-14T03:11:20.310Z,13.40
2022-10-14T03:13:48.156Z,13.40
2022-10-14T03:16:16.008Z,13.40
2022-10-14T03:18:43.898Z,13.40
2022-10-14T03:21:13.127Z,13.40
2022-10-14T03:23:41.061Z,13.40
2022-10-14T03:26:13.650Z,13.40
2022-10-14T03:28:42.000Z,13.40
2022-10-14T03:31:09.953Z,13.40
2022-10-14T03:33:37.859Z,13.40
2022-10-14T03:36:06.085Z,13.40
2022-10-14T03:38:35.385Z,13.40
2022-10-14T03:41:03.227Z,13.40
2022-10-14T03:43:31.434Z,13.40
2022-10-14T03:45:59.432Z,13.30
2022-10-14T03:48:27.369Z,13.30
2022-10-14T03:50:55.182Z,13.30
2022-10-14T03:53:22.980Z,13.30
2022-10-14T03:55:52.146Z,13.30
2022-10-14T03:58:19.938Z,13.30
2022-10-14T04:00:47.774Z,13.30
2022-10-14T04:03:15.596Z,13.30
2022-10-14T04:05:43.584Z,13.30
2022-10-14T04:08:11.394Z,13.30
2022-10-14T04:10:39.191Z,13.30
2022-10-14T04:13:08.635Z,13.30
2022-10-14T04:15:37.352Z,13.30
2022-10-14T04:18:05.224Z,13.30
2022-10-14T04:20:33.292Z,13.30
2022-10-14T04:23:01.520Z,13.30
2022-10-14T04:25:29.389Z,13.20
2022-10-14T04:27:57.234Z,13.20
2022-10-14T04:30:26.424Z,13.20
2022-10-14T04:32:54.216Z,13.30
2022-10-14T04:35:22.041Z,13.20
2022-10-14T04:37:49.860Z,13.20
2022-10-14T04:40:20.358Z,13.30
2022-10-14T04:42:48.140Z,13.30
2022-10-14T04:45:16.079Z,13.20
2022-10-14T04:47:48.652Z,13.20
2022-10-14T04:50:16.920Z,13.20
2022-10-14T04:52:44.826Z,13.20
2022-10-14T04:55:13.140Z,13.20
2022-10-14T04:57:43.836Z,13.30
2022-10-14T05:00:13.591Z,13.30
2022-10-14T05:02:41.601Z,13.20
2022-10-14T05:05:11.415Z,13.30
2022-10-14T05:07:39.331Z,13.30
2022-10-14T05:10:09.722Z,13.20
2022-10-14T05:12:38.917Z,13.20
2022-10-14T05:15:07.824Z,13.30
2022-10-14T05:17:36.430Z,13.30
2022-10-14T05:20:04.824Z,13.30
2022-10-14T05:22:34.027Z,13.30
2022-10-14T05:25:01.994Z,13.30
2022-10-14T05:27:29.949Z,13.30
2022-10-14T05:29:57.780Z,13.30
2022-10-14T05:32:25.649Z,13.30
2022-10-14T05:34:53.471Z,13.30
2022-10-14T05:37:21.289Z,13.30
2022-10-14T05:39:50.430Z,13.40
2022-10-14T05:42:18.270Z,13.40
2022-10-14T05:44:46.067Z,13.40
2022-10-14T05:47:14.352Z,13.40
2022-10-14T05:49:42.173Z,13.40
2022-10-14T05:52:10.140Z,13.40
2022-10-14T05:54:37.952Z,13.40
2022-10-14T05:57:07.209Z,13.40
2022-10-14T05:59:35.177Z,13.40
2022-10-14T06:02:03.340Z,13.50
2022-10-14T06:04:31.167Z,13.40
2022-10-14T06:07:00.175Z,13.50
2022-10-14T06:09:28.187Z,13.50
2022-10-14T06:11:56.028Z,13.50
2022-10-14T06:14:25.298Z,13.50
2022-10-14T06:16:53.193Z,13.50
2022-10-14T06:19:21.007Z,13.40
2022-10-14T06:21:48.982Z,13.40
2022-10-14T06:24:16.964Z,13.40
2022-10-14T06:26:44.812Z,13.40
2022-10-14T06:29:12.609Z,13.50
2022-10-14T06:31:41.815Z,13.50
2022-10-14T06:34:09.840Z,13.60
2022-10-14T06:36:37.847Z,13.60
2022-10-14T06:39:05.908Z,13.60
2022-10-14T06:41:33.799Z,13.70
2022-10-14T06:44:01.604Z,13.70
2022-10-14T06:46:30.818Z,13.70
2022-10-14T06:49:00.026Z,13.70
2022-10-14T06:51:27.942Z,13.70
2022-10-14T06:53:55.761Z,13.80
2022-10-14T06:56:23.566Z,13.80
2022-10-14T06:58:54.626Z,13.80
2022-10-14T07:01:22.969Z,13.80
2022-10-14T07:03:54.245Z,13.80
2022-10-14T07:06:25.927Z,13.90
2022-10-14T07:08:54.099Z,13.90
2022-10-14T07:11:21.965Z,13.90
2022-10-14T07:13:49.865Z,13.90
2022-10-14T07:16:17.694Z,14.00
2022-10-14T07:18:45.611Z,14.00
2022-10-14T07:21:13.410Z,14.00
2022-10-14T07:23:42.636Z,14.00
2022-10-14T07:26:10.541Z,14.00
2022-10-14T07:28:38.485Z,14.10
2022-10-14T07:31:09.054Z,14.00
2022-10-14T07:36:09.771Z,14.10
2022-10-14T07:38:38.215Z,14.10
2022-10-14T07:41:16.679Z,14.10
2022-10-14T07:43:45.181Z,14.10
2022-10-14T07:46:13.789Z,14.10
2022-10-14T07:48:56.749Z,14.20
2022-10-14T07:51:25.580Z,14.20
2022-10-14T07:53:53.838Z,14.20
2022-10-14T07:56:23.377Z,14.20
2022-10-14T07:58:51.315Z,14.20
2022-10-14T08:01:19.967Z,14.30
2022-10-14T08:03:49.145Z,14.40
2022-10-14T08:06:17.332Z,14.40
2022-10-14T08:08:45.189Z,14.50
2022-10-14T08:11:15.098Z,14.50
2022-10-14T08:13:46.214Z,14.60
2022-10-14T08:16:16.826Z,14.60
2022-10-14T08:18:45.420Z,14.70
2022-10-14T08:21:13.968Z,14.70
2022-10-14T08:23:42.065Z,14.70
2022-10-14T08:26:20.708Z,14.80
2022-10-14T08:28:50.501Z,14.80
2022-10-14T08:31:18.467Z,14.80
2022-10-14T08:33:46.581Z,14.80
2022-10-14T08:36:14.784Z,14.90
2022-10-14T08:38:42.780Z,14.90
2022-10-14T08:41:25.713Z,14.90
2022-10-14T08:44:06.505Z,14.90
2022-10-14T08:46:39.827Z,14.90
2022-10-14T08:49:13.853Z,14.90
2022-10-14T08:51:45.349Z,14.90
2022-10-14T08:54:19.344Z,14.90
2022-10-14T08:56:47.728Z,15.00
2022-10-14T08:59:21.350Z,15.10
2022-10-14T09:01:53.525Z,15.10
2022-10-14T09:04:21.469Z,15.10
2022-10-14T09:06:52.195Z,15.10
2022-10-14T09:09:25.697Z,15.10
2022-10-14T09:11:59.297Z,15.10
2022-10-14T09:14:34.240Z,15.20
2022-10-14T09:17:07.282Z,15.10
2022-10-14T09:19:39.521Z,15.10
2022-10-14T09:22:13.590Z,15.10
2022-10-14T09:24:45.238Z,15.10
2022-10-14T09:27:16.620Z,15.20
2022-10-14T09:29:49.137Z,15.20
2022-10-14T09:32:21.368Z,15.20
2022-10-14T09:34:51.380Z,15.30
2022-10-14T09:37:28.453Z,15.30
2022-10-14T09:39:59.931Z,15.40
2022-10-14T09:42:31.830Z,15.40
2022-10-14T09:45:08.292Z,15.40
2022-10-14T09:47:41.224Z,15.40
2022-10-14T09:50:10.845Z,15.50
2022-10-14T09:52:39.935Z,15.50
2022-10-14T09:55:19.831Z,15.60
2022-10-14T09:57:47.934Z,15.60
2022-10-14T10:00:29.653Z,15.70
2022-10-14T10:02:57.780Z,15.70
2022-10-14T10:05:28.602Z,15.70
2022-10-14T10:08:15.610Z,15.80
2022-10-14T10:10:58.782Z,15.80
2022-10-14T10:13:35.134Z,15.80
2022-10-14T10:16:06.446Z,15.80
2022-10-14T10:18:34.444Z,15.80
2022-10-14T10:21:06.792Z,15.80
2022-10-14T10:23:37.169Z,15.80
2022-10-14T10:26:21.264Z,15.80
2022-10-14T10:28:50.442Z,15.90
2022-10-14T10:31:45.133Z,15.80
2022-10-14T10:34:37.317Z,15.80
2022-10-14T10:37:13.810Z,15.90
2022-10-14T10:39:49.733Z,15.90
2022-10-14T10:42:24.109Z,15.90
2022-10-14T10:45:07.454Z,16.00
2022-10-14T10:47:45.581Z,16.00
2022-10-14T10:50:39.055Z,16.10
2022-10-14T10:53:25.284Z,16.10
2022-10-14T10:56:01.241Z,16.10
2022-10-14T10:58:44.197Z,16.10
2022-10-14T11:01:26.160Z,16.00
2022-10-14T11:04:07.316Z,16.00
2022-10-14T11:07:01.575Z,16.00
2022-10-14T11:09:52.997Z,16.00
2022-10-14T11:12:27.333Z,16.00
2022-10-14T11:17:53.598Z,16.00
2022-10-14T11:20:33.731Z,16.00
2022-10-14T11:23:30.916Z,15.90
2022-10-14T11:26:06.812Z,15.80
2022-10-14T11:28:46.841Z,15.80
2022-10-14T11:31:28.520Z,15.80
2022-10-14T11:34:11.909Z,15.80
2022-10-14T11:36:49.530Z,15.80
2022-10-14T11:39:34.779Z,15.90
2022-10-14T11:42:14.584Z,15.90
2022-10-14T11:44:43.839Z,16.00
2022-10-14T11:47:15.718Z,16.10
2022-10-14T11:49:49.603Z,16.20
2022-10-14T11:52:23.271Z,16.20
2022-10-14T11:54:56.476Z,16.30
2022-10-14T11:57:32.600Z,16.30
2022-10-14T12:00:37.905Z,16.40
2022-10-14T12:03:12.895Z,16.40
2022-10-14T12:05:46.432Z,16.40
2022-10-14T12:08:22.780Z,16.40
2022-10-14T12:10:56.674Z,16.30
2022-10-14T12:13:33.227Z,16.40
2022-10-14T12:16:02.014Z,16.40
2022-10-14T12:18:32.866Z,16.40
2022-10-14T12:21:18.484Z,16.40
2022-10-14T12:23:50.874Z,16.50
2022-10-14T12:26:36.648Z,16.50
2022-10-14T12:29:05.652Z,16.50
2022-10-14T12:31:38.567Z,16.50
2022-10-14T12:34:30.482Z,16.50
2022-10-14T12:36:58.838Z,16.50
2022-10-14T12:39:34.683Z,16.50
2022-10-14T12:42:04.852Z,16.60
2022-10-14T12:44:37.418Z,16.60
2022-10-14T12:47:06.191Z,16.60
2022-10-14T12:49:36.282Z,16.70
2022-10-14T12:52:08.193Z,16.80
2022-10-14T12:54:39.039Z,16.80
2022-10-14T12:57:24.625Z,16.80
2022-10-14T12:59:55.002Z,16.80
2022-10-14T13:02:32.418Z,16.80
2022-10-14T13:05:03.129Z,16.70
2022-10-14T13:07:41.198Z,16.70
2022-10-14T13:10:47.389Z,16.70
2022-10-14T13:13:59.669Z,16.70
2022-10-14T13:16:56.000Z,16.80
2022-10-14T13:19:43.384Z,16.80
2022-10-14T13:22:39.020Z,16.80
2022-10-14T13:25:16.837Z,16.90
2022-10-14T13:28:01.069Z,17.00
2022-10-14T13:30:36.371Z,17.00
2022-10-14T13:33:14.501Z,17.00
2022-10-14T13:35:54.581Z,17.10
2022-10-14T13:38:24.729Z,17.20
2022-10-14T13:40:54.603Z,17.20
2022-10-14T13:43:28.576Z,17.10
2022-10-14T13:46:03.437Z,17.10
2022-10-14T13:48:35.614Z,17.10
2022-10-14T13:51:41.863Z,17.10
2022-10-14T13:54:22.415Z,17.10
2022-10-14T13:57:28.636Z,17.10
2022-10-14T14:02:40.156Z,17.00
2022-10-14T14:05:15.344Z,16.90
2022-10-14T14:08:30.156Z,16.90
2022-10-14T14:10:32.612Z,16.80
2022-10-14T14:13:05.694Z,16.80
2022-10-14T14:15:36.336Z,16.80
2022-10-14T14:18:04.248Z,16.80
2022-10-14T14:20:34.006Z,16.80
2022-10-14T14:23:01.931Z,16.80
2022-10-14T14:25:34.663Z,16.70
2022-10-14T14:28:06.912Z,16.70
2022-10-14T14:30:38.308Z,16.70
2022-10-14T14:33:11.661Z,16.70
2022-10-14T14:35:39.700Z,16.70
2022-10-14T14:38:25.456Z,16.60
2022-10-14T14:41:02.332Z,16.60
2022-10-14T14:43:34.742Z,16.60
2022-10-14T14:46:05.919Z,16.60
2022-10-14T14:48:35.064Z,16.60
2022-10-14T14:51:03.532Z,16.60
2022-10-14T14:53:31.596Z,16.60
2022-10-14T14:56:09.082Z,16.60
2022-10-14T14:58:47.102Z,16.60
2022-10-14T15:01:22.303Z,16.60
2022-10-14T15:04:12.258Z,16.60
2022-10-14T15:06:50.804Z,16.60
2022-10-14T15:09:25.350Z,16.60
2022-10-14T15:11:55.656Z,16.60
2022-10-14T15:14:35.461Z,16.60
2022-10-14T15:17:06.607Z,16.60
2022-10-14T15:19:38.437Z,16.50
2022-10-14T15:22:34.648Z,16.60
2022-10-14T15:25:13.708Z,16.50
2022-10-14T15:27:53.597Z,16.50
2022-10-14T15:30:31.591Z,16.50
2022-10-14T15:33:03.463Z,16.50
2022-10-14T15:35:38.953Z,16.40
2022-10-14T15:38:15.957Z,16.40
2022-10-14T15:40:44.900Z,16.40
2022-10-14T15:43:16.694Z,16.40
2022-10-14T15:46:08.260Z,16.40
2022-10-14T15:48:37.749Z,16.40
2022-10-14T15:51:06.211Z,16.30
2022-10-14T15:53:34.171Z,16.30
2022-10-14T15:56:02.133Z,16.30
2022-10-14T15:58:31.078Z,16.30
2022-10-14T16:00:59.041Z,16.30
2022-10-14T16:03:27.298Z,16.30
2022-10-14T16:05:56.856Z,16.30
2022-10-14T16:08:24.854Z,16.30
2022-10-14T16:10:54.217Z,16.30
2022-10-14T16:13:22.343Z,16.30
2022-10-14T16:15:53.301Z,16.30
2022-10-14T16:18:23.244Z,16.20
2022-10-14T16:20:51.260Z,16.20
2022-10-14T16:23:27.048Z,16.30
2022-10-14T16:25:56.340Z,16.20
2022-10-14T16:28:24.221Z,16.20
2022-10-14T16:30:52.254Z,16.20
2022-10-14T16:33:22.543Z,16.20
2022-10-14T16:35:53.066Z,16.20
2022-10-14T16:38:22.829Z,16.20
2022-10-14T16:40:55.546Z,16.20
2022-10-14T16:43:23.475Z,16.20
2022-10-14T16:45:51.690Z,16.20
2022-10-14T16:48:19.829Z,16.20
2022-10-14T16:50:50.420Z,16.20
2022-10-14T16:53:35.991Z,16.20
2022-10-14T16:56:26.078Z,16.10
2022-10-14T16:58:53.963Z,16.10
2022-10-14T17:01:21.843Z,16.10
2022-10-14T17:03:50.054Z,16.00
2022-10-14T17:06:23.123Z,16.00
2022-10-14T17:08:52.449Z,16.00
2022-10-14T17:11:22.005Z,16.00
2022-10-14T17:13:52.706Z,15.90
2022-10-14T17:16:20.884Z,15.90
2022-10-14T17:18:49.737Z,15.90
2022-10-14T17:21:18.364Z,15.90
2022-10-14T17:23:46.371Z,15.90
2022-10-14T17:26:15.883Z,15.90
2022-10-14T17:28:45.942Z,15.90
2022-10-14T17:31:16.150Z,15.90
2022-10-14T17:33:44.553Z,15.80
2022-10-14T17:36:19.530Z,15.90
2022-10-14T17:38:50.632Z,15.80
2022-10-14T17:41:19.368Z,15.90
2022-10-14T17:43:50.521Z,15.90
2022-10-14T17:46:21.275Z,15.90
2022-10-14T17:48:51.221Z,15.80
2022-10-14T17:51:20.133Z,15.80
2022-10-14T17:53:48.189Z,15.80
2022-10-14T17:56:16.476Z,15.80
2022-10-14T17:58:44.340Z,15.90
2022-10-14T18:01:15.243Z,15.90
2022-10-14T18:03:44.856Z,15.90
2022-10-14T18:06:15.564Z,15.90
2022-10-14T18:08:45.685Z,15.90
2022-10-14T18:11:14.912Z,15.90
2022-10-14T18:13:43.113Z,15.90
2022-10-14T18:16:14.272Z,15.90
2022-10-14T18:18:43.056Z,16.00
2022-10-14T18:21:12.318Z,16.00
2022-10-14T18:23:40.926Z,15.90
2022-10-14T18:26:13.725Z,16.00
2022-10-14T18:28:43.953Z,16.00
2022-10-14T18:31:17.591Z,16.00
2022-10-14T18:33:46.875Z,15.90
2022-10-14T18:36:17.090Z,15.90
2022-10-14T18:38:50.699Z,15.90
2022-10-14T18:41:18.583Z,15.90
2022-10-14T18:43:47.353Z,15.90
2022-10-14T18:46:18.447Z,15.80
2022-10-14T18:48:48.286Z,15.80
2022-10-14T18:51:18.269Z,15.80
2022-10-14T18:53:47.963Z,15.80
2022-10-14T18:56:17.891Z,15.70
2022-10-14T18:58:46.817Z,15.70
2022-10-14T19:01:17.918Z,15.60
2022-10-14T19:03:47.201Z,15.60
2022-10-14T19:06:15.816Z,15.50
2022-10-14T19:08:45.982Z,15.50
2022-10-14T19:11:17.958Z,15.50
2022-10-14T19:13:46.970Z,15.40
2022-10-14T19:16:18.858Z,15.40
2022-10-14T19:18:47.184Z,15.40
2022-10-14T19:21:19.134Z,15.40
2022-10-14T19:23:47.169Z,15.40
2022-10-14T19:26:21.156Z,15.30
2022-10-14T19:28:50.130Z,15.40
2022-10-14T19:31:21.949Z,15.30
2022-10-14T19:33:50.109Z,15.30
2022-10-14T19:36:19.224Z,15.30
2022-10-14T19:38:49.647Z,15.30
2022-10-14T19:41:17.737Z,15.30
2022-10-14T19:43:45.632Z,15.30
2022-10-14T19:46:14.304Z,15.30
2022-10-14T19:48:43.721Z,15.30
2022-10-14T19:51:11.842Z,15.30
2022-10-14T19:53:40.154Z,15.30
2022-10-14T19:56:11.447Z,15.30
2022-10-14T19:58:43.845Z,15.30
2022-10-14T20:01:14.899Z,15.30
2022-10-14T20:03:44.620Z,15.30
2022-10-14T20:06:14.085Z,15.30
2022-10-14T20:08:42.896Z,15.30
2022-10-14T20:11:13.117Z,15.30
2022-10-14T20:13:41.431Z,15.30
2022-10-14T20:16:11.253Z,15.30
2022-10-14T20:18:39.348Z,15.30
2022-10-14T20:21:09.731Z,15.20
2022-10-14T20:23:38.975Z,15.30
2022-10-14T20:26:08.716Z,15.30
2022-10-14T20:28:38.384Z,15.20
2022-10-14T20:31:07.729Z,15.20
2022-10-14T20:33:36.452Z,15.20
2022-10-14T20:36:06.467Z,15.20
2022-10-14T20:38:37.991Z,15.20
2022-10-14T20:41:07.577Z,15.20
2022-10-14T20:43:35.615Z,15.20
2022-10-14T20:46:03.472Z,15.20
2022-10-14T20:48:31.577Z,15.20
2022-10-14T20:50:59.431Z,15.20
2022-10-14T20:53:28.835Z,15.20
2022-10-14T20:56:02.600Z,15.10
2022-10-14T20:58:30.638Z,15.20
2022-10-14T21:01:06.552Z,15.10
2022-10-14T21:03:34.832Z,15.10
2022-10-14T21:06:04.057Z,15.10
2022-10-14T21:08:32.420Z,15.10
2022-10-14T21:11:02.731Z,15.10
2022-10-14T21:13:31.302Z,15.20
2022-10-14T21:15:59.495Z,15.10
2022-10-14T21:18:27.708Z,15.10
2022-10-14T21:20:55.739Z,15.10
2022-10-14T21:23:23.605Z,15.10
2022-10-14T21:25:56.498Z,15.10
2022-10-14T21:28:26.533Z,15.00
2022-10-14T21:30:54.468Z,15.10
2022-10-14T21:33:22.386Z,15.10
2022-10-14T21:35:50.551Z,15.10
2022-10-14T21:38:18.455Z,15.10
2022-10-14T21:40:46.342Z,15.10
2022-10-14T21:43:14.232Z,15.00
2022-10-14T21:45:43.553Z,15.00
2022-10-14T21:48:11.444Z,15.10
2022-10-14T21:50:39.341Z,15.10
2022-10-14T21:53:07.610Z,15.00
2022-10-14T21:55:37.247Z,15.10
2022-10-14T21:58:05.141Z,15.00
2022-10-14T22:00:33.481Z,15.00
2022-10-14T22:03:02.706Z,15.10
2022-10-14T22:05:30.561Z,15.00
2022-10-14T22:07:58.767Z,15.10
2022-10-14T22:10:45.354Z,15.00
2022-10-14T22:13:13.216Z,15.00
2022-10-14T22:15:44.501Z,15.00
2022-10-14T22:18:13.791Z,15.00
2022-10-14T22:20:41.667Z,15.10
2022-10-14T22:23:09.619Z,15.10
2022-10-14T22:25:37.762Z,15.10
2022-10-14T22:28:06.101Z,15.10
2022-10-14T22:30:36.233Z,15.10
2022-10-14T22:33:04.164Z,15.10
2022-10-14T22:35:33.386Z,15.10
2022-10-14T22:38:01.253Z,15.10
2022-10-14T22:40:29.157Z,15.10
2022-10-14T22:42:57.081Z,15.10
2022-10-14T22:45:24.962Z,15.10
2022-10-14T22:47:52.934Z,15.10
2022-10-14T22:50:20.819Z,15.10
2022-10-14T22:52:50.059Z,15.10
2022-10-14T22:55:17.975Z,15.10
2022-10-14T22:57:45.805Z,15.10
2022-10-14T23:00:15.214Z,15.10
2022-10-14T23:02:43.655Z,15.20
2022-10-14T23:05:11.656Z,15.20
2022-10-14T23:07:41.206Z,15.20
2022-10-14T23:10:11.387Z,15.20
2022-10-14T23:12:39.274Z,15.20
2022-10-14T23:15:08.155Z,15.20
2022-10-14T23:17:36.018Z,15.20
2022-10-14T23:20:04.127Z,15.20
2022-10-14T23:22:34.428Z,15.20
2022-10-14T23:25:02.352Z,15.20
2022-10-14T23:27:34.257Z,15.30
2022-10-14T23:30:04.416Z,15.20
2022-10-14T23:32:32.476Z,15.30
2022-10-14T23:35:00.365Z,15.30
2022-10-14T23:37:28.287Z,15.30
2022-10-14T23:39:56.228Z,15.30
2022-10-14T23:42:24.178Z,15.30
2022-10-14T23:44:56.531Z,15.30
2022-10-14T23:47:24.783Z,15.30
2022-10-14T23:49:53.049Z,15.30
2022-10-14T23:52:20.960Z,15.30
2022-10-14T23:54:48.940Z,15.30
2022-10-14T23:57:16.891Z,15.30
2022-10-14T23:59:45.226Z,15.30
